Time;durP1;ratioP1;P1;durP2;ratioP2;P2;SDS_P1;SDS_P2;PMS_P1;PMS_P2;Temp;Humidity;BMP_temperature;BMP_pressure;BME280_temperature;BME280_humidity;BME280_pressure;Samples;Min_cycle;Max_cycle;Signal;HPM_P1;HPM_P2
2022/02/19 00:01:47;;;;;;;11.43;1.87;;;8.30;99.90;;;;;;4975227;28;20475;-68
2022/02/19 00:04:14;;;;;;;7.63;2.27;;;8.30;99.90;;;;;;4975257;28;20888;-67
2022/02/19 00:06:41;;;;;;;4.43;1.30;;;8.30;99.90;;;;;;4975329;28;20454;-67
2022/02/19 00:09:08;;;;;;;12.20;3.80;;;8.30;99.90;;;;;;4974885;28;20459;-66
2022/02/19 00:11:36;;;;;;;3.20;1.33;;;8.30;99.90;;;;;;4974836;28;20458;-68
2022/02/19 00:14:02;;;;;;;4.53;1.77;;;8.30;99.90;;;;;;4974841;28;20542;-67
2022/02/19 00:16:29;;;;;;;6.77;2.33;;;8.30;99.90;;;;;;4974711;28;21157;-67
2022/02/19 00:18:56;;;;;;;6.50;1.70;;;8.30;99.90;;;;;;4974997;28;20459;-67
2022/02/19 00:21:22;;;;;;;5.97;1.70;;;8.30;99.90;;;;;;4974589;28;20830;-67
2022/02/19 00:23:49;;;;;;;6.57;2.10;;;8.20;99.90;;;;;;4974758;28;20486;-67
2022/02/19 00:26:16;;;;;;;6.40;1.50;;;8.20;99.90;;;;;;4975018;28;20459;-67
2022/02/19 00:28:44;;;;;;;12.90;1.87;;;8.10;99.90;;;;;;4974982;28;20470;-67
2022/02/19 00:31:10;;;;;;;6.57;1.80;;;8.10;99.90;;;;;;4976661;28;20455;-67
2022/02/19 00:33:37;;;;;;;6.27;2.27;;;8.10;99.90;;;;;;4978994;28;20489;-66
2022/02/19 00:36:04;;;;;;;6.60;1.93;;;8.10;99.90;;;;;;4979500;28;20454;-68
2022/02/19 00:38:31;;;;;;;7.43;1.87;;;8.10;99.90;;;;;;4979075;28;20451;-67
2022/02/19 00:41:00;;;;;;;8.77;2.07;;;8.10;99.90;;;;;;4980067;28;20458;-67
2022/02/19 00:43:27;;;;;;;7.23;1.97;;;8.10;99.90;;;;;;4979419;28;20878;-66
2022/02/19 00:45:56;;;;;;;9.13;1.80;;;8.10;99.90;;;;;;4978873;28;20795;-67
2022/02/19 00:48:23;;;;;;;7.57;2.13;;;8.20;99.90;;;;;;4979469;28;20873;-68
2022/02/19 00:50:49;;;;;;;7.80;1.53;;;8.20;99.90;;;;;;4997281;28;20459;-67
2022/02/19 00:53:16;;;;;;;7.63;1.83;;;8.20;99.90;;;;;;4999155;28;20467;-67
2022/02/19 00:55:43;;;;;;;7.70;1.97;;;8.10;99.90;;;;;;4984506;28;20841;-67
2022/02/19 00:58:10;;;;;;;7.73;2.40;;;8.10;99.90;;;;;;4978376;28;20853;-67
2022/02/19 01:00:37;;;;;;;7.43;2.17;;;8.10;99.90;;;;;;4978147;28;20513;-67
2022/02/19 01:03:05;;;;;;;9.63;1.67;;;8.10;99.90;;;;;;4978238;28;20479;-68
2022/02/19 01:05:32;;;;;;;9.60;2.97;;;8.10;99.90;;;;;;4978636;28;20458;-68
2022/02/19 01:07:59;;;;;;;3.90;1.40;;;8.10;99.90;;;;;;4977620;28;20640;-67
2022/02/19 01:10:26;;;;;;;5.00;1.60;;;8.10;99.90;;;;;;4977923;28;20818;-67
2022/02/19 01:12:53;;;;;;;6.73;2.00;;;8.10;99.90;;;;;;4977474;28;21040;-67
2022/02/19 01:15:19;;;;;;;8.47;2.03;;;8.00;99.90;;;;;;4982988;28;20447;-67
2022/02/19 01:17:46;;;;;;;8.37;2.50;;;8.00;99.90;;;;;;4999664;28;20451;-68
2022/02/19 01:20:14;;;;;;;7.40;1.70;;;8.00;99.90;;;;;;4986177;28;21045;-67
2022/02/19 01:22:42;;;;;;;4.20;1.30;;;8.00;99.90;;;;;;4978244;28;20474;-68
2022/02/19 01:25:10;;;;;;;7.97;1.97;;;8.00;99.90;;;;;;4978464;28;20462;-68
2022/02/19 01:27:37;;;;;;;11.23;2.00;;;8.00;99.90;;;;;;4978381;28;20494;-67
2022/02/19 01:30:05;;;;;;;3.37;1.50;;;8.00;99.90;;;;;;4980883;28;20459;-66
2022/02/19 01:32:32;;;;;;;5.10;1.40;;;8.10;99.50;;;;;;4980240;28;20580;-68
2022/02/19 01:34:59;;;;;;;6.87;1.70;;;8.10;99.40;;;;;;4980997;28;20479;-66
2022/02/19 01:37:27;;;;;;;4.97;1.93;;;8.10;99.30;;;;;;4978348;28;20482;-67
2022/02/19 01:39:54;;;;;;;9.77;2.03;;;8.10;98.90;;;;;;4984568;28;20451;-68
2022/02/19 01:42:21;;;;;;;10.37;1.73;;;8.10;98.60;;;;;;4984433;28;20474;-67
2022/02/19 01:44:51;;;;;;;6.90;1.97;;;8.10;98.40;;;;;;4976980;28;20450;-67
2022/02/19 01:47:18;;;;;;;3.20;1.50;;;8.10;98.40;;;;;;4976634;28;20781;-68
2022/02/19 01:49:45;;;;;;;4.40;1.60;;;8.00;97.60;;;;;;4976952;28;20459;-68
2022/02/19 01:52:13;;;;;;;2.90;1.10;;;8.00;96.40;;;;;;4977003;28;20481;-68
2022/02/19 01:54:42;;;;;;;7.47;1.73;;;8.00;96.50;;;;;;4976616;28;20486;-67
2022/02/19 01:57:09;;;;;;;5.13;1.40;;;8.00;96.60;;;;;;4988112;28;20459;-67
2022/02/19 01:59:37;;;;;;;1.67;1.27;;;8.00;97.10;;;;;;4976944;28;20820;-67
2022/02/19 02:02:04;;;;;;;4.50;1.67;;;7.80;96.20;;;;;;4976590;28;20490;-67
2022/02/19 02:04:31;;;;;;;5.77;1.47;;;7.80;96.40;;;;;;4976827;28;20435;-67
2022/02/19 02:06:59;;;;;;;5.60;1.90;;;7.80;96.60;;;;;;4976554;28;20454;-67
2022/02/19 02:09:26;;;;;;;5.03;1.60;;;7.80;96.90;;;;;;4976667;28;20454;-66
2022/02/19 02:11:55;;;;;;;8.97;1.77;;;7.70;96.70;;;;;;4976451;28;20514;-67
2022/02/19 02:14:21;;;;;;;4.13;2.00;;;7.80;96.90;;;;;;4976440;28;20501;-67
2022/02/19 02:16:48;;;;;;;5.40;1.67;;;7.80;96.90;;;;;;4976502;28;20455;-67
2022/02/19 02:19:15;;;;;;;4.00;1.47;;;7.80;97.00;;;;;;4976564;28;20972;-67
2022/02/19 02:21:43;;;;;;;4.13;1.53;;;7.80;97.30;;;;;;4975955;28;20934;-67
2022/02/19 02:24:09;;;;;;;8.63;1.87;;;7.80;97.30;;;;;;4976456;28;20451;-67
2022/02/19 02:26:37;;;;;;;7.20;2.00;;;7.70;97.30;;;;;;4976320;28;20459;-67
2022/02/19 02:29:04;;;;;;;6.60;2.40;;;7.70;97.70;;;;;;4976490;28;20455;-67
2022/02/19 02:31:31;;;;;;;10.13;2.20;;;7.60;97.70;;;;;;4976264;28;20462;-68
2022/02/19 02:33:58;;;;;;;6.10;2.00;;;7.50;97.50;;;;;;4976045;28;20475;-67
2022/02/19 02:36:25;;;;;;;10.33;2.40;;;7.60;98.20;;;;;;4975996;28;20961;-68
2022/02/19 02:38:53;;;;;;;5.73;1.63;;;7.50;98.50;;;;;;4976427;28;20462;-68
2022/02/19 02:41:20;;;;;;;7.70;1.53;;;7.50;98.20;;;;;;4978008;28;20454;-67
2022/02/19 02:43:47;;;;;;;10.93;2.67;;;7.40;98.20;;;;;;4992440;28;20451;-68
2022/02/19 02:46:14;;;;;;;5.70;2.03;;;7.50;98.20;;;;;;4980654;28;20458;-67
2022/02/19 02:48:41;;;;;;;5.73;1.70;;;7.50;98.40;;;;;;4981805;28;20470;-67
2022/02/19 02:51:07;;;;;;;5.40;2.10;;;7.40;98.50;;;;;;4995633;28;20466;-67
2022/02/19 02:53:35;;;;;;;6.57;1.90;;;7.40;98.50;;;;;;4978932;28;20487;-67
2022/02/19 02:56:03;;;;;;;6.37;2.37;;;7.40;98.10;;;;;;4975237;28;20454;-68
2022/02/19 02:58:30;;;;;;;7.07;1.80;;;7.40;98.80;;;;;;4976104;28;20455;-67
2022/02/19 03:00:57;;;;;;;5.60;1.67;;;7.40;99.00;;;;;;4976233;28;20458;-67
2022/02/19 03:03:24;;;;;;;6.20;1.87;;;7.30;98.70;;;;;;4975652;28;20483;-67
2022/02/19 03:05:50;;;;;;;4.27;1.70;;;7.30;98.20;;;;;;4975541;28;20827;-68
2022/02/19 03:08:17;;;;;;;5.40;2.43;;;7.30;98.30;;;;;;4976013;28;20525;-67
2022/02/19 03:10:44;;;;;;;8.57;2.33;;;7.20;98.40;;;;;;4976049;28;20455;-67
2022/02/19 03:13:12;;;;;;;8.00;1.90;;;7.20;97.70;;;;;;4975370;28;20486;-67
2022/02/19 03:15:38;;;;;;;9.53;2.10;;;7.20;98.00;;;;;;4975611;28;20513;-67
2022/02/19 03:18:06;;;;;;;9.73;1.77;;;7.10;97.90;;;;;;4976335;28;20462;-67
2022/02/19 03:20:34;;;;;;;5.63;1.80;;;7.10;98.00;;;;;;4975445;28;20474;-68
2022/02/19 03:23:01;;;;;;;4.67;1.80;;;7.00;98.30;;;;;;4975352;28;20537;-67
2022/02/19 03:25:28;;;;;;;5.27;1.90;;;7.00;98.30;;;;;;4975451;28;20451;-67
2022/02/19 03:27:56;;;;;;;5.00;1.60;;;7.00;97.80;;;;;;4976956;28;20466;-67
2022/02/19 03:30:24;;;;;;;7.90;1.60;;;7.00;98.40;;;;;;4997057;28;20455;-68
2022/02/19 03:32:51;;;;;;;5.13;1.70;;;7.00;98.20;;;;;;4976381;28;20478;-67
2022/02/19 03:35:17;;;;;;;7.30;2.00;;;6.90;97.60;;;;;;4983339;28;20483;-67
2022/02/19 03:37:44;;;;;;;5.70;1.60;;;6.90;97.80;;;;;;4983063;28;20938;-67
2022/02/19 03:40:11;;;;;;;10.60;1.80;;;6.90;98.30;;;;;;4983683;28;20458;-67
2022/02/19 03:42:41;;;;;;;3.93;1.40;;;6.80;97.80;;;;;;4975700;28;20482;-67
2022/02/19 03:45:10;;;;;;;7.87;1.40;;;6.80;97.90;;;;;;4975361;28;20455;-66
2022/02/19 03:47:41;;;;;;;6.40;1.70;;;6.80;98.00;;;;;;4975468;28;20466;-68
2022/02/19 03:50:09;;;;;;;7.40;1.57;;;6.80;98.40;;;;;;4975589;28;20797;-67
2022/02/19 03:52:37;;;;;;;5.20;1.70;;;6.80;98.30;;;;;;4974810;28;21000;-66
2022/02/19 03:55:04;;;;;;;4.80;1.50;;;6.80;98.70;;;;;;4974985;28;20537;-67
2022/02/19 03:57:31;;;;;;;9.30;1.70;;;6.80;99.10;;;;;;4975386;28;20462;-67
2022/02/19 03:59:58;;;;;;;5.00;2.03;;;6.80;99.20;;;;;;4976722;28;20886;-67
2022/02/19 04:02:25;;;;;;;4.70;1.80;;;6.70;99.40;;;;;;4976710;28;20490;-67
2022/02/19 04:04:53;;;;;;;8.40;1.97;;;6.70;99.50;;;;;;4977714;28;20451;-67
2022/02/19 04:07:19;;;;;;;6.53;1.80;;;6.70;99.40;;;;;;4979392;28;20459;-66
2022/02/19 04:09:46;;;;;;;9.80;1.60;;;6.50;98.80;;;;;;4981138;28;20857;-67
2022/02/19 04:12:13;;;;;;;4.13;1.67;;;6.50;98.40;;;;;;4980737;28;20888;-67
2022/02/19 04:14:40;;;;;;;5.40;1.37;;;6.40;98.40;;;;;;4979691;28;20878;-67
2022/02/19 04:17:06;;;;;;;7.87;1.93;;;6.40;98.70;;;;;;4979298;28;20573;-67
2022/02/19 04:19:33;;;;;;;9.73;2.00;;;6.50;99.10;;;;;;4978948;28;20458;-67
2022/02/19 04:22:03;;;;;;;9.33;1.50;;;6.40;99.10;;;;;;4995654;28;20462;-67
2022/02/19 04:24:29;;;;;;;10.70;1.77;;;6.40;99.20;;;;;;5000172;28;20457;-67
2022/02/19 04:26:56;;;;;;;9.17;2.50;;;6.30;99.40;;;;;;4981052;28;20562;-67
2022/02/19 04:29:23;;;;;;;5.70;1.97;;;6.30;99.90;;;;;;4978851;28;20451;-67
2022/02/19 04:31:54;;;;;;;7.20;1.73;;;6.20;99.90;;;;;;4980931;28;20475;-67
2022/02/19 04:34:22;;;;;;;7.43;1.83;;;6.20;99.90;;;;;;4986636;28;20537;-67
2022/02/19 04:36:48;;;;;;;11.30;2.13;;;6.20;99.90;;;;;;4978635;28;20458;-66
2022/02/19 04:39:17;;;;;;;2.90;1.57;;;6.20;99.90;;;;;;4978358;28;20494;-66
2022/02/19 04:41:44;;;;;;;5.67;1.60;;;6.10;99.90;;;;;;4978107;28;20463;-66
2022/02/19 04:44:10;;;;;;;6.67;1.73;;;6.20;99.90;;;;;;4978113;28;20458;-66
2022/02/19 04:46:37;;;;;;;8.23;2.40;;;6.20;99.90;;;;;;4977916;28;20808;-66
2022/02/19 04:49:04;;;;;;;6.47;1.83;;;6.10;99.90;;;;;;4978006;28;20462;-66
2022/02/19 04:51:31;;;;;;;9.67;2.33;;;6.10;99.90;;;;;;4977644;28;20459;-66
2022/02/19 04:53:58;;;;;;;5.73;1.90;;;6.10;99.90;;;;;;4977725;28;20462;-66
2022/02/19 04:56:26;;;;;;;6.20;2.53;;;6.10;99.90;;;;;;4978687;28;20809;-66
2022/02/19 04:58:52;;;;;;;5.47;1.70;;;6.10;99.90;;;;;;4977773;28;20459;-66
2022/02/19 05:01:19;;;;;;;6.50;1.90;;;6.00;99.90;;;;;;4978549;28;20466;-66
2022/02/19 05:03:46;;;;;;;6.70;2.53;;;6.00;99.90;;;;;;4977699;28;20493;-66
2022/02/19 05:06:13;;;;;;;8.73;2.17;;;6.00;99.90;;;;;;4977962;28;20459;-66
2022/02/19 05:08:40;;;;;;;4.70;2.07;;;6.00;99.90;;;;;;4978973;28;20458;-65
2022/02/19 05:11:07;;;;;;;11.10;2.80;;;6.00;99.90;;;;;;4977658;28;20467;-66
2022/02/19 05:13:35;;;;;;;8.70;2.10;;;5.90;99.90;;;;;;4977217;28;21045;-66
2022/02/19 05:16:02;;;;;;;8.70;2.30;;;5.90;99.90;;;;;;4977435;28;21005;-66
2022/02/19 05:18:29;;;;;;;6.73;2.17;;;5.90;99.90;;;;;;4991107;28;20438;-66
2022/02/19 05:20:56;;;;;;;8.90;1.90;;;5.80;99.90;;;;;;4986766;28;20462;-66
2022/02/19 05:23:22;;;;;;;11.93;2.23;;;5.90;99.90;;;;;;4977528;28;20989;-66
2022/02/19 05:25:50;;;;;;;7.57;2.43;;;5.80;99.90;;;;;;4978221;28;20485;-66
2022/02/19 05:28:16;;;;;;;4.77;2.53;;;5.80;99.90;;;;;;4977467;28;20459;-66
2022/02/19 05:30:45;;;;;;;8.90;2.80;;;5.80;99.90;;;;;;4977580;28;20510;-67
2022/02/19 05:33:12;;;;;;;8.20;2.33;;;5.80;99.90;;;;;;4977499;28;20478;-65
2022/02/19 05:35:39;;;;;;;9.77;2.87;;;5.80;99.90;;;;;;4977384;28;20529;-66
2022/02/19 05:38:05;;;;;;;13.77;3.37;;;5.80;99.90;;;;;;4977570;28;20455;-66
2022/02/19 05:40:32;;;;;;;12.00;2.50;;;5.90;99.90;;;;;;4977437;28;20816;-66
2022/02/19 05:42:59;;;;;;;8.33;2.10;;;5.90;99.90;;;;;;4977523;28;20491;-66
2022/02/19 05:45:26;;;;;;;7.47;1.50;;;5.80;99.90;;;;;;4977134;28;20514;-66
2022/02/19 05:47:56;;;;;;;8.53;1.97;;;5.80;99.90;;;;;;4977375;28;20454;-66
2022/02/19 05:50:23;;;;;;;7.70;2.17;;;5.70;99.90;;;;;;4977371;28;20455;-66
2022/02/19 05:52:49;;;;;;;5.87;1.90;;;5.70;99.90;;;;;;4979148;28;20483;-66
2022/02/19 05:55:16;;;;;;;9.60;2.07;;;5.70;99.90;;;;;;5000267;28;20471;-67
2022/02/19 05:57:46;;;;;;;9.20;2.30;;;5.70;99.90;;;;;;4989614;28;20454;-66
2022/02/19 06:00:14;;;;;;;7.43;2.03;;;5.70;99.90;;;;;;4976953;28;20466;-66
2022/02/19 06:02:41;;;;;;;5.80;2.17;;;5.70;99.90;;;;;;4976728;28;20998;-66
2022/02/19 06:05:09;;;;;;;9.50;2.10;;;5.70;99.90;;;;;;4977058;28;20454;-66
2022/02/19 06:07:36;;;;;;;8.57;2.10;;;5.60;99.90;;;;;;4977528;28;20459;-66
2022/02/19 06:10:03;;;;;;;11.47;2.30;;;5.60;99.90;;;;;;4977209;28;20510;-66
2022/02/19 06:12:29;;;;;;;9.23;3.20;;;5.60;99.90;;;;;;4977034;28;20490;-67
2022/02/19 06:14:56;;;;;;;10.20;2.07;;;5.50;99.90;;;;;;4976629;28;20494;-66
2022/02/19 06:17:23;;;;;;;8.53;1.77;;;5.50;99.90;;;;;;4976772;28;20443;-66
2022/02/19 06:19:49;;;;;;;10.30;1.63;;;5.40;99.90;;;;;;4976185;28;20462;-66
2022/02/19 06:22:17;;;;;;;7.13;2.23;;;5.50;99.90;;;;;;4995232;28;20451;-67
2022/02/19 06:24:44;;;;;;;10.53;2.00;;;5.40;99.90;;;;;;4979065;28;20501;-66
2022/02/19 06:27:11;;;;;;;7.57;2.30;;;5.40;99.90;;;;;;4977089;28;20466;-66
2022/02/19 06:29:37;;;;;;;6.43;1.80;;;5.30;99.90;;;;;;4976594;28;20455;-66
2022/02/19 06:32:05;;;;;;;7.63;2.03;;;5.30;99.90;;;;;;4976395;28;20533;-66
2022/02/19 06:34:32;;;;;;;10.53;2.20;;;5.30;99.90;;;;;;4976203;28;20447;-66
2022/02/19 06:36:59;;;;;;;8.67;2.80;;;5.30;99.90;;;;;;4976457;28;20822;-66
2022/02/19 06:39:27;;;;;;;12.50;2.93;;;5.30;99.90;;;;;;4977157;28;20462;-66
2022/02/19 06:41:54;;;;;;;12.37;2.70;;;5.30;99.90;;;;;;4977345;28;20485;-66
2022/02/19 06:44:21;;;;;;;9.13;2.10;;;5.40;99.90;;;;;;4977284;28;20829;-67
2022/02/19 06:46:47;;;;;;;7.60;1.93;;;5.40;99.90;;;;;;4976169;28;20950;-66
2022/02/19 06:49:14;;;;;;;7.77;2.30;;;5.40;99.90;;;;;;4978045;28;20455;-66
2022/02/19 06:51:41;;;;;;;5.83;2.40;;;5.50;99.90;;;;;;4977225;28;20470;-66
2022/02/19 06:54:07;;;;;;;7.10;2.50;;;5.40;99.90;;;;;;4983898;28;20466;-66
2022/02/19 06:56:36;;;;;;;10.30;1.80;;;5.50;99.90;;;;;;4981844;28;20490;-66
2022/02/19 06:59:05;;;;;;;8.43;2.20;;;5.50;99.90;;;;;;4979509;28;20466;-66
2022/02/19 07:01:31;;;;;;;13.60;2.17;;;5.50;99.90;;;;;;4979880;28;20459;-67
2022/02/19 07:03:58;;;;;;;6.10;1.73;;;5.60;99.90;;;;;;4978936;28;20455;-67
2022/02/19 07:06:25;;;;;;;8.37;2.20;;;5.60;99.90;;;;;;4981835;28;20474;-67
2022/02/19 07:08:52;;;;;;;11.17;2.20;;;5.60;99.90;;;;;;4989826;28;20498;-66
2022/02/19 07:11:19;;;;;;;12.30;2.27;;;5.70;99.90;;;;;;4979542;28;20468;-66
2022/02/19 07:13:47;;;;;;;8.73;2.00;;;5.70;99.90;;;;;;4977805;28;20474;-66
2022/02/19 07:16:14;;;;;;;7.90;1.73;;;5.70;99.90;;;;;;4976637;28;20836;-66
2022/02/19 07:18:40;;;;;;;9.20;3.20;;;5.80;99.90;;;;;;4976476;28;20458;-66
2022/02/19 07:21:07;;;;;;;8.80;3.00;;;5.70;99.90;;;;;;4976958;28;20466;-67
2022/02/19 07:23:34;;;;;;;12.13;2.20;;;5.80;99.90;;;;;;4977114;28;20482;-67
2022/02/19 07:26:01;;;;;;;7.57;2.37;;;5.90;99.90;;;;;;4981994;28;20510;-67
2022/02/19 07:28:27;;;;;;;9.23;1.97;;;6.10;99.90;;;;;;4988337;28;20454;-68
2022/02/19 07:30:55;;;;;;;7.83;2.00;;;6.30;99.90;;;;;;4982036;28;20470;-67
2022/02/19 07:33:22;;;;;;;7.67;1.93;;;6.50;99.90;;;;;;4977122;28;20478;-67
2022/02/19 07:35:49;;;;;;;5.47;2.00;;;6.70;99.90;;;;;;4977717;28;20463;-67
2022/02/19 07:38:16;;;;;;;12.10;1.97;;;7.00;99.90;;;;;;4976337;28;20961;-66
2022/02/19 07:40:42;;;;;;;8.63;2.10;;;6.80;99.90;;;;;;4977049;28;20451;-66
2022/02/19 07:43:09;;;;;;;6.77;2.03;;;6.80;99.90;;;;;;4981395;28;20841;-68
2022/02/19 07:45:36;;;;;;;8.23;1.63;;;6.70;99.90;;;;;;4981935;28;20465;-67
2022/02/19 07:48:04;;;;;;;7.57;2.80;;;6.80;99.90;;;;;;4981191;28;20459;-67
2022/02/19 07:58:43;;;;;;;5.47;2.17;;;8.30;99.90;;;;;;4981332;28;20518;-67
2022/02/19 08:01:12;;;;;;;8.13;1.80;;;8.80;99.90;;;;;;4984395;28;20462;-68
2022/02/19 08:03:40;;;;;;;9.50;2.10;;;9.30;99.70;;;;;;4999136;28;20490;-67
2022/02/19 08:06:07;;;;;;;9.70;1.70;;;9.70;98.70;;;;;;4987882;28;20446;-66
2022/02/19 08:08:34;;;;;;;2.67;1.67;;;10.40;96.90;;;;;;4986714;28;20910;-67
2022/02/19 08:11:01;;;;;;;6.03;2.17;;;10.90;95.20;;;;;;4979707;28;20454;-66
2022/02/19 08:13:28;;;;;;;10.07;2.30;;;11.70;93.20;;;;;;4979859;28;20475;-67
2022/02/19 08:15:55;;;;;;;5.67;1.63;;;12.20;91.00;;;;;;4979720;28;20474;-66
2022/02/19 08:18:22;;;;;;;6.00;1.60;;;12.60;89.20;;;;;;4979136;28;20529;-65
2022/02/19 08:20:52;;;;;;;5.67;2.30;;;12.70;86.80;;;;;;4978790;28;20454;-65
2022/02/19 08:23:20;;;;;;;7.60;2.17;;;12.90;86.30;;;;;;4979496;28;20474;-66
2022/02/19 08:25:48;;;;;;;5.50;2.30;;;12.60;85.20;;;;;;4979206;28;20454;-66
2022/02/19 08:28:15;;;;;;;4.03;1.40;;;12.50;85.90;;;;;;4979432;28;20454;-65
2022/02/19 08:30:45;;;;;;;7.30;2.13;;;12.70;85.20;;;;;;4978609;28;20950;-66
2022/02/19 08:33:12;;;;;;;6.70;1.77;;;13.30;85.10;;;;;;4978470;28;20486;-66
2022/02/19 08:35:40;;;;;;;5.37;2.00;;;13.90;81.80;;;;;;4978442;28;20478;-66
2022/02/19 08:38:10;;;;;;;6.30;2.60;;;14.60;79.60;;;;;;4978797;28;20484;-66
2022/02/19 08:40:37;;;;;;;5.60;1.80;;;15.30;76.30;;;;;;4979760;28;20584;-66
2022/02/19 08:43:04;;;;;;;5.93;1.70;;;16.10;74.80;;;;;;4978822;28;20482;-66
2022/02/19 08:45:31;;;;;;;4.73;1.80;;;16.70;71.40;;;;;;4978797;28;20455;-66
2022/02/19 08:48:04;;;;;;;4.50;1.93;;;17.40;68.00;;;;;;4978357;28;20461;-66
2022/02/19 08:50:32;;;;;;;3.83;1.53;;;17.70;64.40;;;;;;4978516;28;20447;-66
2022/02/19 08:52:59;;;;;;;7.53;1.80;;;18.10;62.90;;;;;;4977220;28;20525;-66
2022/02/19 08:55:27;;;;;;;5.80;2.17;;;18.30;60.00;;;;;;4983995;28;20478;-69
2022/02/19 08:57:54;;;;;;;5.87;2.00;;;18.50;59.30;;;;;;4995752;28;20439;-69
2022/02/19 09:00:21;;;;;;;4.47;1.70;;;18.80;58.90;;;;;;4984478;28;20465;-69
2022/02/19 09:02:48;;;;;;;7.10;2.27;;;18.70;58.10;;;;;;4982057;28;20234;-70
2022/02/19 09:05:17;;;;;;;4.27;2.37;;;18.40;56.80;;;;;;4977800;28;20442;-70
2022/02/19 09:07:44;;;;;;;9.10;2.40;;;18.50;57.00;;;;;;4978265;28;20459;-70
2022/02/19 09:10:13;;;;;;;7.20;2.17;;;18.60;56.00;;;;;;4977736;28;20958;-69
2022/02/19 09:12:46;;;;;;;6.73;2.03;;;18.50;57.30;;;;;;4977857;28;20474;-70
2022/02/19 09:15:14;;;;;;;6.83;1.77;;;18.90;56.20;;;;;;4978204;28;20443;-70
2022/02/19 09:17:41;;;;;;;5.20;1.67;;;18.70;56.50;;;;;;4997687;28;20447;-70
2022/02/19 09:20:09;;;;;;;5.73;2.17;;;18.60;55.30;;;;;;4978270;28;20466;-70
2022/02/19 09:22:37;;;;;;;4.03;1.80;;;18.20;54.70;;;;;;4977472;28;20481;-71
2022/02/19 09:25:04;;;;;;;5.80;1.70;;;18.60;55.90;;;;;;4977136;28;20940;-71
2022/02/19 09:27:31;;;;;;;4.80;2.17;;;18.30;55.10;;;;;;4977411;28;20458;-69
2022/02/19 09:29:59;;;;;;;4.03;2.10;;;18.40;60.90;;;;;;4977480;28;20853;-69
2022/02/19 09:32:25;;;;;;;5.73;2.10;;;18.60;62.00;;;;;;4977217;28;20482;-69
2022/02/19 09:34:52;;;;;;;3.90;2.13;;;19.10;59.20;;;;;;4977580;28;20822;-69
2022/02/19 09:37:19;;;;;;;4.47;1.80;;;19.30;58.50;;;;;;4977013;28;20566;-69
2022/02/19 09:39:46;;;;;;;7.53;2.00;;;19.60;57.80;;;;;;4977310;28;20493;-69
2022/02/19 09:42:14;;;;;;;6.50;2.63;;;19.90;55.80;;;;;;4977230;28;20482;-69
2022/02/19 09:44:41;;;;;;;5.40;2.17;;;19.90;55.40;;;;;;4976795;28;20967;-70
2022/02/19 09:47:09;;;;;;;6.23;1.87;;;20.00;51.10;;;;;;4977204;28;20435;-70
2022/02/19 09:49:36;;;;;;;4.80;1.83;;;19.80;50.90;;;;;;4976721;28;20463;-71
2022/02/19 09:52:03;;;;;;;5.17;2.03;;;20.30;51.70;;;;;;4977031;28;20475;-72
2022/02/19 09:54:30;;;;;;;2.77;2.07;;;20.50;50.50;;;;;;4976652;28;20964;-71
2022/02/19 09:56:57;;;;;;;3.83;1.40;;;20.40;50.90;;;;;;4977359;28;20479;-70
2022/02/19 09:59:23;;;;;;;4.50;1.57;;;20.20;49.90;;;;;;4976939;28;20459;-71
2022/02/19 10:02:01;;;;;;;4.00;1.90;;;20.50;50.00;;;;;;4976323;28;20842;-70
2022/02/19 10:04:29;;;;;;;3.90;1.93;;;20.60;50.00;;;;;;4976348;28;20482;-71
2022/02/19 10:06:59;;;;;;;2.83;1.70;;;20.00;48.60;;;;;;4976403;28;20957;-71
2022/02/19 10:09:27;;;;;;;5.47;1.93;;;19.80;49.70;;;;;;4976640;28;20919;-71
2022/02/19 10:11:55;;;;;;;4.33;1.60;;;19.70;49.40;;;;;;4976664;28;20562;-70
2022/02/19 10:14:29;;;;;;;4.77;1.70;;;19.90;48.90;;;;;;4976771;28;20482;-71
2022/02/19 10:17:07;;;;;;;6.90;2.23;;;19.70;50.00;;;;;;4976887;28;20463;-70
2022/02/19 10:19:47;;;;;;;7.47;2.50;;;19.80;49.60;;;;;;4976507;28;20463;-70
2022/02/19 10:22:15;;;;;;;5.43;1.93;;;19.90;49.70;;;;;;4976559;28;20557;-70
2022/02/19 10:24:45;;;;;;;5.90;1.50;;;20.00;49.30;;;;;;4976880;28;20462;-71
2022/02/19 10:27:11;;;;;;;5.20;2.10;;;20.20;47.70;;;;;;4976549;28;20451;-71
2022/02/19 10:29:54;;;;;;;6.00;2.10;;;19.90;47.90;;;;;;4979636;28;20462;-70
2022/02/19 10:32:21;;;;;;;6.87;1.70;;;19.80;48.60;;;;;;4992001;28;20474;-71
2022/02/19 10:35:13;;;;;;;4.17;1.67;;;19.80;49.30;;;;;;4982778;28;20938;-70
2022/02/19 10:37:44;;;;;;;4.13;2.00;;;20.10;47.90;;;;;;4976637;28;20467;-71
2022/02/19 10:40:36;;;;;;;7.47;1.93;;;19.50;48.70;;;;;;4976437;28;20459;-70
2022/02/19 10:43:05;;;;;;;9.27;2.00;;;20.00;49.80;;;;;;4976472;28;20836;-70
2022/02/19 10:45:33;;;;;;;4.00;1.57;;;20.30;49.20;;;;;;4983535;28;20474;-71
2022/02/19 10:48:13;;;;;;;3.80;1.80;;;20.20;48.10;;;;;;4991504;28;20505;-71
2022/02/19 10:50:42;;;;;;;2.60;1.20;;;20.20;46.60;;;;;;4976941;28;20461;-70
2022/02/19 10:53:09;;;;;;;3.67;1.83;;;19.50;46.30;;;;;;4975963;28;20487;-71
2022/02/19 10:55:37;;;;;;;5.37;2.10;;;19.70;47.20;;;;;;4975630;28;20455;-71
2022/02/19 10:58:06;;;;;;;4.97;1.90;;;19.30;48.70;;;;;;4976086;28;20514;-71
2022/02/19 11:00:35;;;;;;;4.30;1.83;;;19.40;46.60;;;;;;4976177;28;20455;-71
2022/02/19 11:03:03;;;;;;;3.77;1.40;;;19.80;46.80;;;;;;4975568;28;20490;-71
2022/02/19 11:05:30;;;;;;;2.73;1.50;;;20.00;47.60;;;;;;4992076;28;20435;-70
2022/02/19 11:08:00;;;;;;;3.77;1.40;;;20.10;47.70;;;;;;4981742;28;20447;-71
2022/02/19 11:10:26;;;;;;;5.83;1.23;;;19.60;46.30;;;;;;4976601;28;20505;-71
2022/02/19 11:12:53;;;;;;;3.30;1.73;;;19.20;46.90;;;;;;4976725;28;20478;-70
2022/02/19 11:15:20;;;;;;;2.30;1.50;;;18.70;46.20;;;;;;4997075;28;20451;-70
2022/02/19 11:17:48;;;;;;;1.80;1.20;;;17.70;48.10;;;;;;4980062;28;20487;-70
2022/02/19 11:20:16;;;;;;;2.70;1.30;;;17.20;49.80;;;;;;4975514;28;20459;-71
2022/02/19 11:22:44;;;;;;;5.43;1.30;;;16.50;49.20;;;;;;4975230;28;20475;-71
2022/02/19 11:25:15;;;;;;;4.50;1.30;;;16.10;49.70;;;;;;4975449;28;20455;-70
2022/02/19 11:27:46;;;;;;;4.23;1.63;;;15.30;50.00;;;;;;4974931;28;20929;-70
2022/02/19 11:30:13;;;;;;;2.70;1.40;;;14.40;50.80;;;;;;4975554;28;20444;-70
2022/02/19 11:32:43;;;;;;;3.80;1.23;;;14.00;51.60;;;;;;4975093;28;20474;-71
2022/02/19 11:35:10;;;;;;;5.20;2.30;;;13.80;54.00;;;;;;4975588;28;20459;-70
2022/02/19 11:37:42;;;;;;;4.87;1.80;;;13.60;54.80;;;;;;4975344;28;20482;-71
2022/02/19 11:40:13;;;;;;;2.90;1.37;;;13.50;54.70;;;;;;4975290;28;20479;-70
2022/02/19 11:42:45;;;;;;;4.30;1.37;;;13.60;54.80;;;;;;4975310;28;20815;-70
2022/02/19 11:45:29;;;;;;;6.10;1.60;;;13.40;54.50;;;;;;4975322;28;20877;-70
2022/02/19 11:48:27;;;;;;;2.23;1.40;;;13.20;55.10;;;;;;4975465;28;20527;-70
2022/02/19 11:51:15;;;;;;;3.07;1.40;;;13.10;57.60;;;;;;4975678;28;20443;-70
2022/02/19 11:53:43;;;;;;;2.87;1.60;;;13.40;56.00;;;;;;4975457;28;20498;-71
2022/02/19 11:56:14;;;;;;;2.23;1.60;;;13.40;55.80;;;;;;4992428;28;20431;-70
2022/02/19 11:58:51;;;;;;;2.70;1.50;;;13.10;54.50;;;;;;4990595;28;20490;-70
2022/02/19 12:01:18;;;;;;;4.33;1.60;;;13.00;54.50;;;;;;4982634;28;20465;-71
2022/02/19 12:03:45;;;;;;;5.63;1.67;;;12.70;54.90;;;;;;4991595;28;20478;-70
2022/02/19 12:06:20;;;;;;;4.90;1.43;;;12.70;56.60;;;;;;4987003;28;20455;-71
2022/02/19 12:09:08;;;;;;;3.57;1.80;;;12.60;55.70;;;;;;4975172;28;20478;-71
2022/02/19 12:12:06;;;;;;;4.80;1.63;;;12.60;57.20;;;;;;4975148;28;20435;-70
2022/02/19 12:14:58;;;;;;;6.67;1.60;;;12.40;56.90;;;;;;4974812;28;20977;-70
2022/02/19 12:17:46;;;;;;;5.57;1.73;;;12.40;58.20;;;;;;4975138;28;20494;-70
2022/02/19 12:20:27;;;;;;;3.20;1.30;;;12.30;58.00;;;;;;4981779;28;20450;-70
2022/02/19 12:22:58;;;;;;;6.67;2.13;;;12.40;60.50;;;;;;4987090;28;20477;-70
2022/02/19 12:25:25;;;;;;;4.23;1.80;;;12.60;59.60;;;;;;4988932;28;20436;-70
2022/02/19 12:28:15;;;;;;;3.40;1.33;;;12.80;57.70;;;;;;4983017;28;20458;-70
2022/02/19 12:30:43;;;;;;;7.43;2.37;;;12.70;58.40;;;;;;4980324;28;20443;-69
2022/02/19 12:33:09;;;;;;;1.33;1.23;;;12.50;58.70;;;;;;4980115;28;20486;-70
2022/02/19 12:35:37;;;;;;;2.57;1.20;;;12.40;58.80;;;;;;4990871;28;20450;-70
2022/02/19 12:38:07;;;;;;;3.60;1.47;;;12.70;58.70;;;;;;4980090;28;20487;-69
2022/02/19 12:40:34;;;;;;;4.40;1.90;;;12.80;58.40;;;;;;4980399;28;20969;-70
2022/02/19 12:43:01;;;;;;;2.50;1.40;;;13.00;61.00;;;;;;4979423;28;20574;-70
2022/02/19 12:45:27;;;;;;;2.90;1.17;;;13.20;58.90;;;;;;4979528;28;20462;-71
2022/02/19 12:47:54;;;;;;;7.07;3.20;;;13.20;58.20;;;;;;4978974;28;20457;-70
2022/02/19 12:50:21;;;;;;;3.70;1.73;;;13.30;57.90;;;;;;4978753;28;20455;-70
2022/02/19 12:52:49;;;;;;;3.90;2.07;;;13.30;59.10;;;;;;4978436;28;20532;-70
2022/02/19 12:55:19;;;;;;;4.87;1.80;;;13.40;58.50;;;;;;4978183;28;20454;-70
2022/02/19 12:57:46;;;;;;;3.87;1.40;;;13.50;62.80;;;;;;4978925;28;20486;-69
2022/02/19 13:00:14;;;;;;;5.47;1.70;;;13.30;59.00;;;;;;4978996;28;20462;-69
2022/02/19 13:02:41;;;;;;;4.13;1.73;;;13.40;58.50;;;;;;4978903;28;20854;-70
2022/02/19 13:05:09;;;;;;;5.97;1.60;;;13.50;69.30;;;;;;4986295;28;20459;-69
2022/02/19 13:07:36;;;;;;;3.70;1.10;;;13.80;59.60;;;;;;4983112;28;20456;-69